Список аэропортов
Фактическая погода:

21 апреля, 19:00
Температура: +17°C (+17.0*)
Ветер: перем. 1 м/с
Давление: *765 мм
Без существ. явл.
Время (МСК)Темп. СВетерВлажностьДавлениеОблачностьОсадки
15:00+16СЗ, 3 м/с26%1021 гПамалооблачно
16:00+17СЗ, 3 м/с24%1021 гПамалооблачно
17:00+17СЗ, 3 м/с23%1020 гПаясно
18:00+17СЗ, 3 м/с23%1020 гПаясно
19:00+16СЗ, 3 м/с23%1020 гПаясно
20:00+15С, 2 м/с25%1021 гПаясно
21:00+12СВ, 1 м/с33%1022 гПаясно
22:00+11ЮВ, 1 м/с38%1022 гПаясно
23:00+10Ю, 2 м/с42%1023 гПаясно
22 апреля
00:00+9Ю, 2 м/с46%1023 гПаясно
01:00+8Ю, 1 м/с50%1023 гПаясно
02:00+7Ю, 1 м/с53%1023 гПаясно
03:00+6Ю, 2 м/с55%1022 гПаясно
04:00+5Ю, 1 м/с62%1022 гПаясно
05:00+4ЮВ, 1 м/с67%1022 гПаясно
06:00+4Ю, 1 м/с69%1022 гПаясно
07:00+3ЮВ, 1 м/с72%1022 гПаясно
08:00+5В, 1 м/с67%1021 гПаясно
09:00+9С, 2 м/с53%1020 гПаясно
10:00+12С, 1 м/с44%1019 гПаясно
11:00+15Штиль 35%1018 гПаясно
12:00+17ЮЗ, 3 м/с29%1018 гПаясно
13:00+18ЮЗ, 3 м/с27%1017 гПаясно
14:00+19Ю, 3 м/с24%1016 гПаясно
15:00+20Ю, 3 м/с21%1016 гПаясно
16:00+20Ю, 3 м/с20%1016 гПаясно
17:00+20Ю, 4 м/с22%1015 гПамалооблачно
18:00+19Ю, 5 м/с28%1016 гПамалооблачно
19:00+18ЮВ, 5 м/с33%1016 гПас прояснениями
20:00+17ЮВ, 5 м/с37%1016 гПас прояснениями
21:00+16ЮВ, 5 м/с48%1017 гПаоблачно
22:00+14ЮВ, 4 м/с54%1018 гПаоблачно
23:00+13В, 5 м/с64%1018 гПаоблачно
23 апреля
00:00+12ЮВ, 2 м/с72%1019 гПас прояснениями
01:00+11В, 3 м/с74%1020 гПаоблачно
02:00+11В, 3 м/с74%1020 гПаоблачно
03:00+11В, 4 м/с68%1020 гПаоблачно
04:00+10В, 4 м/с63%1020 гПаоблачносл. дождь
05:00+10В, 4 м/с63%1021 гПаоблачносл. дождь
06:00+9В, 3 м/с64%1022 гПаоблачносл. дождь
07:00+9В, 4 м/с66%1022 гПаоблачносл. дождь
08:00+8В, 4 м/с68%1023 гПаоблачносл. дождь
09:00+9В, 4 м/с66%1023 гПаоблачнодождь
10:00+9В, 5 м/с70%1023 гПаоблачнодождь
11:00+9В, 6 м/с70%1023 гПаоблачно
12:00+11В, 6 м/с63%1022 гПас прояснениямисл. дождь
13:00+12В, 7 м/с60%1022 гПаоблачно
14:00+14В, 7 м/с54%1021 гПас прояснениями
15:00+15В, 8 м/с50%1020 гПас прояснениями